Time;durP1;ratioP1;P1;durP2;ratioP2;P2;SDS_P1;SDS_P2;PMS_P1;PMS_P2;Temp;Humidity;BMP_temperature;BMP_pressure;BME280_temperature;BME280_humidity;BME280_pressure;Samples;Min_cycle;Max_cycle;Signal;HPM_P1;HPM_P2
2023/09/10 00:01:47;;;;;;;36.53;22.77;;;;;;;-144.73;100.00;54276.34;5030641;28;20116;-70
2023/09/10 00:04:12;;;;;;;31.88;22.77;;;;;;;-144.73;100.00;54296.88;5032880;28;20029;-70
2023/09/10 00:06:38;;;;;;;34.60;23.08;;;;;;;-144.73;100.00;54243.50;5027955;28;20036;-70
2023/09/10 00:09:04;;;;;;;31.10;23.75;;;;;;;-144.73;100.00;54280.44;5031594;28;20030;-70
2023/09/10 00:11:29;;;;;;;40.60;25.38;;;;;;;-144.73;100.00;54255.81;5031981;28;20033;-70
2023/09/10 00:13:54;;;;;;;43.55;24.80;;;;;;;-144.73;100.00;54317.38;5032573;28;20064;-70
2023/09/10 00:16:20;;;;;;;34.22;24.50;;;;;;;-144.73;100.00;54251.72;5030605;28;20038;-70
2023/09/10 00:18:45;;;;;;;38.58;25.83;;;;;;;-144.73;100.00;54300.97;5030613;28;20033;-70
2023/09/10 00:21:11;;;;;;;37.88;24.75;;;;;;;-144.73;100.00;54288.66;5031863;28;20045;-70
2023/09/10 00:23:36;;;;;;;41.45;25.25;;;;;;;-144.73;100.00;54259.91;5031335;28;20025;-70
2023/09/10 00:26:02;;;;;;;32.05;23.67;;;;;;;-144.73;100.00;54255.81;5030262;28;20037;-71
2023/09/10 00:28:27;;;;;;;35.45;25.15;;;;;;;-144.73;100.00;54305.06;5029104;28;20044;-70
2023/09/10 00:30:54;;;;;;;31.52;23.27;;;;;;;-144.73;100.00;54276.34;5030743;28;20034;-70
2023/09/10 00:33:19;;;;;;;39.40;24.50;;;;;;;-144.73;100.00;54286.59;5030691;28;20040;-70
2023/09/10 00:35:45;;;;;;;34.22;23.73;;;;;;;-144.73;100.00;54280.44;5030089;28;20033;-71
2023/09/10 00:38:10;;;;;;;36.78;24.83;;;;;;;-144.73;100.00;54305.06;5027692;28;20036;-70
2023/09/10 00:40:35;;;;;;;33.88;23.35;;;;;;;-144.73;100.00;54276.34;5030629;28;20060;-70
2023/09/10 00:43:01;;;;;;;40.78;27.25;;;;;;;-144.73;100.00;54243.50;5031903;28;20036;-70
2023/09/10 00:45:27;;;;;;;37.97;26.80;;;;;;;-144.73;100.00;54292.75;5029583;28;20031;-70
2023/09/10 00:47:53;;;;;;;35.97;27.02;;;;;;;-144.73;100.00;54309.19;5031412;28;20032;-70
2023/09/10 00:50:19;;;;;;;39.70;27.00;;;;;;;-144.73;100.00;54305.06;5030112;28;20041;-70
2023/09/10 00:52:49;;;;;;;42.80;28.10;;;;;;;-144.73;100.00;54305.06;5032100;28;20056;-70
2023/09/10 00:55:15;;;;;;;40.40;26.42;;;;;;;-144.73;100.00;54294.81;5027666;28;20117;-72
2023/09/10 00:57:40;;;;;;;40.30;23.92;;;;;;;-144.73;100.00;54325.59;5031432;28;20029;-69
2023/09/10 01:00:09;;;;;;;39.17;27.63;;;;;;;-144.73;100.00;54313.28;5029207;28;20021;-70
2023/09/10 01:02:35;;;;;;;33.80;25.70;;;;;;;-144.73;100.00;54296.88;5030666;28;20047;-70
2023/09/10 01:05:01;;;;;;;35.08;26.95;;;;;;;-144.73;100.00;54309.19;5031087;28;20032;-69
2023/09/10 01:07:26;;;;;;;40.72;27.38;;;;;;;-144.73;100.00;54264.03;5028707;28;20033;-70
2023/09/10 01:09:52;;;;;;;39.25;27.00;;;;;;;-144.73;100.00;54292.75;5029306;28;20025;-70
2023/09/10 01:12:28;;;;;;;41.75;28.50;;;;;;;-144.73;100.00;54307.13;5029887;28;20028;-70
2023/09/10 01:15:05;;;;;;;40.08;29.70;;;;;;;-144.73;100.00;54333.81;5028845;28;20459;-69
2023/09/10 01:18:10;;;;;;;39.53;28.45;;;;;;;-144.73;100.00;54300.97;5029492;28;20119;-69
2023/09/10 01:20:49;;;;;;;37.85;26.20;;;;;;;-144.73;100.00;54313.28;5006276;28;20034;-70
2023/09/10 01:23:19;;;;;;;36.28;26.50;;;;;;;-144.73;100.00;54313.28;5026131;28;20108;-69
2023/09/10 01:25:44;;;;;;;38.63;27.42;;;;;;;-144.73;100.00;54342.03;5029083;28;20034;-69
2023/09/10 01:28:10;;;;;;;38.78;29.17;;;;;;;-144.73;100.00;54296.88;5029779;28;20104;-70
2023/09/10 01:30:36;;;;;;;36.25;26.75;;;;;;;-144.73;100.00;54292.75;5029209;28;20056;-70
2023/09/10 01:33:11;;;;;;;43.22;25.20;;;;;;;-144.73;100.00;54303.03;5030711;28;20022;-70
2023/09/10 01:35:51;;;;;;;40.63;26.23;;;;;;;-144.73;100.00;54292.75;5021779;28;20056;-70
2023/09/10 01:38:34;;;;;;;34.57;27.67;;;;;;;-144.73;100.00;54317.38;5027638;28;20029;-70
2023/09/10 01:41:04;;;;;;;38.83;29.13;;;;;;;-144.73;100.00;54333.81;5028971;28;20034;-69
2023/09/10 01:43:32;;;;;;;42.40;31.05;;;;;;;-144.73;100.00;54311.22;5030517;28;20041;-70
2023/09/10 01:45:58;;;;;;;44.45;34.72;;;;;;;-144.73;100.00;54303.03;5028363;28;20064;-70
2023/09/10 01:48:26;;;;;;;40.15;28.85;;;;;;;-144.73;100.00;54337.91;5029723;28;20059;-69
2023/09/10 01:50:53;;;;;;;41.30;30.58;;;;;;;-144.73;100.00;54321.50;5027517;28;20133;-69
2023/09/10 01:53:18;;;;;;;36.63;29.05;;;;;;;-144.73;100.00;54305.06;5030760;28;20468;-70
2023/09/10 01:55:44;;;;;;;46.72;31.52;;;;;;;-144.73;100.00;54321.50;5028604;28;20034;-69
2023/09/10 01:58:12;;;;;;;45.45;35.20;;;;;;;-144.73;100.00;54317.38;5030645;28;20116;-70
2023/09/10 02:00:38;;;;;;;48.72;32.72;;;;;;;-144.73;100.00;54292.75;5029719;28;20408;-69
2023/09/10 02:03:04;;;;;;;41.67;31.45;;;;;;;-144.73;100.00;54266.06;5030842;28;20033;-69
2023/09/10 02:05:30;;;;;;;36.80;27.95;;;;;;;-144.73;100.00;54346.13;5028391;28;20030;-69
2023/09/10 02:07:55;;;;;;;43.45;33.33;;;;;;;-144.73;100.00;54342.03;5029582;28;20076;-69
2023/09/10 02:10:20;;;;;;;44.55;31.00;;;;;;;-144.73;100.00;54300.97;5029516;28;20052;-69
2023/09/10 02:12:46;;;;;;;40.67;30.75;;;;;;;-144.73;100.00;54354.34;5029268;28;20021;-70
2023/09/10 02:15:11;;;;;;;45.95;35.80;;;;;;;-144.73;100.00;54305.06;5028497;28;20033;-70
2023/09/10 02:17:37;;;;;;;40.90;30.90;;;;;;;-144.73;100.00;54300.97;5029379;28;20021;-70
2023/09/10 02:20:09;;;;;;;45.45;35.08;;;;;;;-144.73;100.00;54354.34;5026254;28;20488;-69
2023/09/10 02:22:35;;;;;;;51.25;34.25;;;;;;;-144.73;100.00;54342.03;5027520;28;20029;-70
2023/09/10 02:25:02;;;;;;;42.17;33.22;;;;;;;-144.73;100.00;54348.19;5028584;28;20455;-70
2023/09/10 02:27:28;;;;;;;45.03;34.65;;;;;;;-144.73;100.00;54331.75;5029012;28;20023;-70
2023/09/10 02:29:53;;;;;;;52.72;36.78;;;;;;;-144.73;100.00;54309.19;5028570;28;20108;-70
2023/09/10 02:32:18;;;;;;;43.53;34.20;;;;;;;-144.73;100.00;54276.34;5029592;28;20037;-70
2023/09/10 02:34:44;;;;;;;46.30;35.67;;;;;;;-144.73;100.00;54309.19;5025863;28;20030;-70
2023/09/10 02:37:09;;;;;;;43.10;33.13;;;;;;;-144.73;100.00;54321.50;5031281;28;20537;-70
2023/09/10 02:39:34;;;;;;;46.90;34.90;;;;;;;-144.73;100.00;54344.06;5028711;28;20033;-70
2023/09/10 02:42:00;;;;;;;48.13;35.40;;;;;;;-144.73;100.00;54337.91;5030349;28;20043;-70
2023/09/10 02:44:25;;;;;;;45.30;35.72;;;;;;;-144.73;100.00;54321.50;5039030;28;20036;-69
2023/09/10 02:46:52;;;;;;;53.35;40.35;;;;;;;-144.73;100.00;54329.72;5029679;28;20037;-69
2023/09/10 02:49:17;;;;;;;53.15;39.22;;;;;;;-144.73;100.00;54333.81;5029109;28;20036;-69
2023/09/10 02:51:43;;;;;;;53.92;40.13;;;;;;;-144.73;100.00;54296.88;5028906;28;20026;-70
2023/09/10 02:54:08;;;;;;;55.63;39.20;;;;;;;-144.73;100.00;54342.03;5028223;28;20029;-69
2023/09/10 02:56:33;;;;;;;47.30;37.40;;;;;;;-144.73;100.00;54331.75;5022077;28;20046;-69
2023/09/10 02:58:58;;;;;;;47.28;36.10;;;;;;;-144.73;100.00;54342.03;5027216;28;20056;-70
2023/09/10 03:01:24;;;;;;;55.72;39.95;;;;;;;-144.73;100.00;54311.22;5033361;28;20040;-70
2023/09/10 03:03:50;;;;;;;51.58;40.58;;;;;;;-144.73;100.00;54317.38;5033615;28;20068;-70
2023/09/10 03:06:15;;;;;;;52.08;40.80;;;;;;;-144.73;100.00;54325.59;5032570;28;20056;-70
2023/09/10 03:08:42;;;;;;;51.55;38.83;;;;;;;-144.73;100.00;54325.59;5030653;28;20075;-70
2023/09/10 03:11:09;;;;;;;55.22;39.78;;;;;;;-144.73;100.00;54298.91;5025791;28;20041;-70
2023/09/10 03:13:34;;;;;;;49.63;36.85;;;;;;;-144.73;100.00;54329.72;5032673;28;20013;-70
2023/09/10 03:15:59;;;;;;;60.00;42.58;;;;;;;-144.73;100.00;54329.72;5032273;28;20029;-70
2023/09/10 03:18:25;;;;;;;53.47;40.33;;;;;;;-144.73;100.00;54337.91;5025920;28;20029;-70
2023/09/10 03:20:50;;;;;;;48.80;37.25;;;;;;;-144.73;100.00;54352.28;5032243;28;20033;-70
2023/09/10 03:23:16;;;;;;;55.17;38.05;;;;;;;-144.73;100.00;54337.91;5032862;28;20388;-70
2023/09/10 03:25:41;;;;;;;51.75;38.90;;;;;;;-144.73;100.00;54354.34;5029943;28;20048;-70
2023/09/10 03:28:06;;;;;;;56.40;40.00;;;;;;;-144.73;100.00;54333.81;5033676;28;20044;-70
2023/09/10 03:30:32;;;;;;;61.35;43.65;;;;;;;-144.73;100.00;54296.88;5033279;28;20519;-70
2023/09/10 03:32:58;;;;;;;63.95;42.95;;;;;;;-144.73;100.00;54284.56;5031650;28;20753;-70
2023/09/10 03:35:23;;;;;;;51.75;37.22;;;;;;;-144.73;100.00;54358.44;5031712;28;20086;-70
2023/09/10 03:37:48;;;;;;;47.53;37.25;;;;;;;-144.73;100.00;54317.38;5034050;28;20049;-70
2023/09/10 03:40:14;;;;;;;42.65;32.20;;;;;;;-144.73;100.00;54325.59;5031964;28;20041;-70
2023/09/10 03:42:39;;;;;;;44.33;33.53;;;;;;;-144.73;100.00;54348.19;5024450;28;20064;-70
2023/09/10 03:45:06;;;;;;;49.45;36.33;;;;;;;-144.73;100.00;54342.03;5031814;28;20037;-70
2023/09/10 03:47:33;;;;;;;46.88;35.85;;;;;;;-144.73;100.00;54327.66;5033149;28;20029;-70
2023/09/10 03:49:59;;;;;;;71.05;51.45;;;;;;;-144.73;100.00;54350.22;5027976;28;20040;-70
2023/09/10 03:52:24;;;;;;;76.65;49.80;;;;;;;-144.73;100.00;54354.34;5019201;28;20037;-70
2023/09/10 03:54:50;;;;;;;71.57;50.55;;;;;;;-144.73;100.00;54348.19;5032658;28;20116;-70
2023/09/10 03:57:15;;;;;;;88.78;60.58;;;;;;;-144.73;100.00;54358.44;5033244;28;20030;-70
2023/09/10 03:59:40;;;;;;;97.53;59.38;;;;;;;-144.73;100.00;54378.97;5031566;28;20030;-70
2023/09/10 04:02:06;;;;;;;102.93;69.35;;;;;;;-144.73;100.00;54358.44;5028642;28;20025;-70
2023/09/10 04:04:33;;;;;;;143.95;88.88;;;;;;;-144.73;100.00;54329.72;5029326;28;20027;-70
2023/09/10 04:06:58;;;;;;;133.85;82.07;;;;;;;-144.73;100.00;54385.13;5026798;28;20061;-70
2023/09/10 04:09:24;;;;;;;151.57;87.85;;;;;;;-144.73;100.00;54348.19;5029295;28;20099;-70
2023/09/10 04:11:49;;;;;;;155.43;94.35;;;;;;;-144.73;100.00;54378.97;5028497;28;20508;-70
2023/09/10 04:14:15;;;;;;;157.05;91.45;;;;;;;-144.73;100.00;54366.66;5033229;28;20013;-70
2023/09/10 04:16:40;;;;;;;191.50;107.50;;;;;;;-144.73;100.00;54358.44;5028280;28;20069;-70
2023/09/10 04:19:05;;;;;;;202.52;107.75;;;;;;;-144.73;100.00;54358.44;5032800;28;20037;-70
2023/09/10 04:21:31;;;;;;;217.35;117.78;;;;;;;-144.73;100.00;54348.19;5030610;28;20029;-70
2023/09/10 04:23:56;;;;;;;247.15;125.35;;;;;;;-144.73;100.00;54325.59;5029951;28;20040;-70
2023/09/10 04:26:22;;;;;;;406.67;164.93;;;;;;;-144.73;100.00;54378.97;5031011;28;20025;-70
2023/09/10 04:28:47;;;;;;;288.73;135.95;;;;;;;-144.73;100.00;54327.66;5023250;28;20025;-70
2023/09/10 04:31:14;;;;;;;279.55;136.93;;;;;;;-144.73;100.00;54321.50;5030854;28;20441;-70
2023/09/10 04:33:39;;;;;;;450.50;160.57;;;;;;;-144.73;100.00;54305.06;5031888;28;20079;-70
2023/09/10 04:36:05;;;;;;;387.02;152.82;;;;;;;-144.73;100.00;54383.06;5030586;28;20033;-70
2023/09/10 04:38:30;;;;;;;371.33;149.80;;;;;;;-144.73;100.00;54354.34;5031081;28;20068;-70
2023/09/10 04:40:56;;;;;;;288.55;137.63;;;;;;;-144.73;100.00;54333.81;5030455;28;20030;-70
2023/09/10 04:43:21;;;;;;;401.90;153.68;;;;;;;-144.73;100.00;54331.75;5031543;28;20052;-70
2023/09/10 04:45:47;;;;;;;497.05;170.38;;;;;;;-144.73;100.00;54346.13;5029692;28;20041;-70
2023/09/10 04:48:13;;;;;;;545.88;177.82;;;;;;;-144.73;100.00;54391.28;5032367;28;20013;-70
2023/09/10 04:50:39;;;;;;;442.10;164.95;;;;;;;-144.73;100.00;54354.34;5030768;28;20112;-70
2023/09/10 04:53:05;;;;;;;523.63;181.45;;;;;;;-144.73;100.00;54352.28;5031341;28;20017;-70
2023/09/10 04:55:30;;;;;;;416.02;160.18;;;;;;;-144.73;100.00;54362.53;5029850;28;20036;-70
2023/09/10 04:57:55;;;;;;;427.10;159.80;;;;;;;-144.73;100.00;54362.53;5031146;28;20041;-70
2023/09/10 05:00:21;;;;;;;317.05;137.27;;;;;;;-144.73;100.00;54317.38;5031845;28;20098;-70
2023/09/10 05:02:46;;;;;;;336.80;134.65;;;;;;;-144.73;100.00;54374.84;5031258;28;20115;-70
2023/09/10 05:05:12;;;;;;;319.42;130.60;;;;;;;-144.73;100.00;54370.75;5030663;28;20057;-70
2023/09/10 05:07:37;;;;;;;298.35;119.00;;;;;;;-144.73;100.00;54374.84;5022428;28;20038;-70
2023/09/10 05:10:03;;;;;;;212.88;109.75;;;;;;;-144.73;100.00;54395.38;5029129;28;20402;-71
2023/09/10 05:12:28;;;;;;;268.58;120.10;;;;;;;-144.73;100.00;54370.75;5031848;28;20083;-70
2023/09/10 05:14:53;;;;;;;338.05;119.63;;;;;;;-144.73;100.00;54366.66;5026358;28;20029;-70
2023/09/10 05:17:19;;;;;;;281.23;121.18;;;;;;;-144.73;100.00;54370.75;5021251;28;20029;-71
2023/09/10 05:19:46;;;;;;;325.48;122.53;;;;;;;-144.73;100.00;54348.19;5030142;28;20021;-70
2023/09/10 05:22:12;;;;;;;268.67;113.20;;;;;;;-144.73;100.00;54362.53;5030389;28;20033;-70
2023/09/10 05:24:37;;;;;;;335.10;117.85;;;;;;;-144.73;100.00;54366.66;5030096;28;20511;-71
2023/09/10 05:27:03;;;;;;;356.10;131.98;;;;;;;-144.73;100.00;54350.22;5030719;28;20025;-71
2023/09/10 05:29:28;;;;;;;331.05;128.35;;;;;;;-144.73;100.00;54362.53;5031518;28;20021;-71
2023/09/10 05:31:54;;;;;;;194.30;103.90;;;;;;;-144.73;100.00;54372.81;5023184;28;20400;-71
2023/09/10 05:34:19;;;;;;;306.77;122.43;;;;;;;-144.73;100.00;54370.75;5031979;28;20075;-70
2023/09/10 05:36:45;;;;;;;358.77;133.95;;;;;;;-144.73;100.00;54366.66;5029851;28;20063;-70
2023/09/10 05:39:10;;;;;;;458.83;147.20;;;;;;;-144.73;100.00;54346.13;5032071;28;20021;-70
2023/09/10 05:41:35;;;;;;;379.77;121.80;;;;;;;-144.73;100.00;54346.13;5029847;28;20053;-70
2023/09/10 05:44:01;;;;;;;338.27;117.32;;;;;;;-144.73;100.00;54407.69;5032054;28;20021;-70
2023/09/10 05:46:26;;;;;;;300.08;114.32;;;;;;;-144.73;100.00;54378.97;5029792;28;20033;-71
2023/09/10 05:48:51;;;;;;;343.30;117.55;;;;;;;-144.73;100.00;54366.66;5030181;28;20040;-70
2023/09/10 05:51:17;;;;;;;293.77;108.45;;;;;;;-144.73;100.00;54366.66;5029546;28;20119;-70
2023/09/10 05:53:44;;;;;;;590.88;142.95;;;;;;;-144.73;100.00;54383.06;5031333;28;20107;-70
2023/09/10 05:56:09;;;;;;;311.20;123.30;;;;;;;-144.73;100.00;54391.28;5029829;28;20330;-70
2023/09/10 05:58:35;;;;;;;278.00;114.15;;;;;;;-144.73;100.00;54395.38;5030441;28;20116;-70
2023/09/10 06:01:00;;;;;;;309.63;117.70;;;;;;;-144.73;100.00;54391.28;5022863;28;20041;-70
2023/09/10 06:03:26;;;;;;;237.65;107.90;;;;;;;-144.73;100.00;54391.28;5030353;28;20033;-70
2023/09/10 06:05:51;;;;;;;252.48;108.18;;;;;;;-144.73;100.00;54407.69;5030612;28;20041;-70
2023/09/10 06:08:17;;;;;;;304.27;117.70;;;;;;;-144.73;100.00;54399.50;5030493;28;20043;-70
2023/09/10 06:10:42;;;;;;;327.67;126.60;;;;;;;-144.73;100.00;54337.91;5029374;28;20030;-70
2023/09/10 06:13:08;;;;;;;290.88;116.07;;;;;;;-144.73;100.00;54362.53;5030057;28;20057;-70
2023/09/10 06:15:33;;;;;;;256.38;104.95;;;;;;;-144.73;100.00;54407.69;5029544;28;20110;-70
2023/09/10 06:17:58;;;;;;;324.10;120.55;;;;;;;-144.73;100.00;54370.75;5029921;28;20056;-71
2023/09/10 06:20:24;;;;;;;340.75;120.32;;;;;;;-144.73;100.00;54397.44;5029496;28;20030;-72
2023/09/10 06:22:49;;;;;;;236.15;102.80;;;;;;;-144.73;100.00;54407.69;5031048;28;20029;-71
2023/09/10 06:25:15;;;;;;;233.50;98.97;;;;;;;-144.73;100.00;54346.13;5029233;28;20049;-71
2023/09/10 06:27:40;;;;;;;246.75;101.40;;;;;;;-144.73;100.00;54370.75;5031161;28;20023;-71
2023/09/10 06:30:06;;;;;;;222.50;93.88;;;;;;;-144.73;100.00;54374.84;5031183;28;20578;-71
2023/09/10 06:32:32;;;;;;;296.80;111.85;;;;;;;-144.73;100.00;54383.06;5030049;28;20134;-71
2023/09/10 06:34:57;;;;;;;252.18;103.72;;;;;;;-144.73;100.00;54364.59;5030672;28;20034;-71
2023/09/10 06:37:23;;;;;;;197.15;85.63;;;;;;;-144.73;100.00;54432.31;5033382;28;20060;-71
2023/09/10 06:39:49;;;;;;;186.88;82.97;;;;;;;-144.73;100.00;54391.28;5033596;28;20372;-71
2023/09/10 06:42:14;;;;;;;197.95;85.20;;;;;;;-144.73;100.00;54362.53;5033497;28;20041;-71
2023/09/10 06:44:43;;;;;;;203.50;86.32;;;;;;;-144.73;100.00;54399.50;5034548;28;20055;-71
2023/09/10 06:47:09;;;;;;;164.20;73.00;;;;;;;-144.73;100.00;54383.06;5033938;28;20071;-71
2023/09/10 06:49:38;;;;;;;181.60;82.55;;;;;;;-144.73;100.00;54370.75;5035767;28;20083;-71
2023/09/10 06:52:05;;;;;;;198.25;85.63;;;;;;;-144.73;100.00;54391.28;5033334;28;20033;-71
2023/09/10 06:54:31;;;;;;;180.30;83.43;;;;;;;-144.73;100.00;54383.06;5034704;28;20033;-71
2023/09/10 06:56:58;;;;;;;224.98;92.53;;;;;;;-144.73;100.00;54378.97;5033594;28;20092;-71
2023/09/10 06:59:24;;;;;;;233.57;91.38;;;;;;;-144.73;100.00;54360.50;5034025;28;20028;-71
2023/09/10 07:01:50;;;;;;;207.10;81.93;;;;;;;-144.73;100.00;54385.13;5032730;28;20033;-70
2023/09/10 07:04:17;;;;;;;192.88;82.18;;;;;;;-144.73;100.00;54428.22;5029283;28;20540;-70
2023/09/10 07:06:44;;;;;;;181.05;75.75;;;;;;;-144.73;100.00;54383.06;5033624;28;20040;-71
2023/09/10 07:09:11;;;;;;;194.63;82.25;;;;;;;-144.73;100.00;54389.22;5034160;28;20041;-71
2023/09/10 07:11:36;;;;;;;195.32;82.30;;;;;;;-144.73;100.00;54395.38;5032769;28;20034;-71
2023/09/10 07:14:02;;;;;;;231.07;87.22;;;;;;;-144.73;100.00;54387.19;5029156;28;20013;-70
2023/09/10 07:16:28;;;;;;;226.77;88.18;;;;;;;-144.73;100.00;54391.28;5034479;28;20037;-70
2023/09/10 07:18:53;;;;;;;221.90;84.03;;;;;;;-144.73;100.00;54358.44;5031514;28;20033;-70
2023/09/10 07:21:19;;;;;;;226.70;88.45;;;;;;;-144.73;100.00;54372.81;5028274;28;20034;-72
2023/09/10 07:23:44;;;;;;;272.63;89.82;;;;;;;-144.73;100.00;54407.69;5033717;28;20120;-71
2023/09/10 07:26:10;;;;;;;241.95;87.43;;;;;;;-144.73;100.00;54346.13;5034538;28;20043;-70
2023/09/10 07:28:35;;;;;;;235.25;92.85;;;;;;;-144.73;100.00;54420.00;5031817;28;20025;-70
2023/09/10 07:31:04;;;;;;;198.68;80.13;;;;;;;-144.73;100.00;54354.34;5030106;28;20501;-70
2023/09/10 07:33:29;;;;;;;202.95;80.68;;;;;;;-144.73;100.00;54358.44;5033508;28;20091;-70
2023/09/10 07:35:55;;;;;;;202.32;78.13;;;;;;;-144.73;100.00;54407.69;5032396;28;20034;-70
2023/09/10 07:38:21;;;;;;;222.63;84.53;;;;;;;-144.73;100.00;54424.13;5034911;28;20122;-70
2023/09/10 07:40:46;;;;;;;182.15;74.88;;;;;;;-144.73;100.00;54407.69;5032682;28;20033;-71
2023/09/10 07:43:12;;;;;;;336.67;107.22;;;;;;;-144.73;100.00;54383.06;5034371;28;20074;-71
2023/09/10 07:45:39;;;;;;;217.23;84.72;;;;;;;-144.73;100.00;54387.19;5027751;28;20121;-70
2023/09/10 07:48:05;;;;;;;216.60;79.65;;;;;;;-144.73;100.00;54378.97;5032532;28;20507;-71
2023/09/10 07:50:31;;;;;;;237.70;86.50;;;;;;;-144.73;100.00;54383.06;5031123;28;20037;-70
2023/09/10 07:52:57;;;;;;;296.13;96.47;;;;;;;-144.73;100.00;54420.00;5029520;28;20032;-72
2023/09/10 07:55:23;;;;;;;240.73;87.22;;;;;;;-144.73;100.00;54374.84;5033561;28;20036;-72
2023/09/10 07:57:52;;;;;;;232.85;83.50;;;;;;;-144.73;100.00;54370.75;5034832;28;20029;-72
2023/09/10 08:00:19;;;;;;;267.58;88.38;;;;;;;-144.73;100.00;54391.28;5027558;28;20029;-72
2023/09/10 08:02:46;;;;;;;242.30;87.32;;;;;;;-144.73;100.00;54407.69;5034252;28;20365;-72
2023/09/10 08:05:14;;;;;;;222.20;82.93;;;;;;;-144.73;100.00;54393.34;5016044;28;20025;-71
2023/09/10 08:07:40;;;;;;;187.60;75.20;;;;;;;-144.73;100.00;54399.50;5034101;28;20013;-71
2023/09/10 08:10:07;;;;;;;213.13;76.93;;;;;;;-144.73;100.00;54385.13;5031866;28;20033;-72
2023/09/10 08:12:33;;;;;;;198.65;75.72;;;;;;;-144.73;100.00;54407.69;5034386;28;20021;-71
2023/09/10 08:14:59;;;;;;;150.30;65.97;;;;;;;-144.73;100.00;54420.00;5033046;28;20091;-71
2023/09/10 08:17:28;;;;;;;165.45;69.38;;;;;;;-144.73;100.00;54424.13;5033925;28;20068;-71
2023/09/10 08:19:54;;;;;;;167.43;68.10;;;;;;;-144.73;100.00;54424.13;5032508;28;20048;-71
2023/09/10 08:22:20;;;;;;;209.82;78.00;;;;;;;-144.73;100.00;54391.28;5034226;28;20014;-71
2023/09/10 08:24:48;;;;;;;225.95;82.15;;;;;;;-144.73;100.00;54420.00;5033086;28;20036;-72
2023/09/10 08:27:13;;;;;;;184.63;75.28;;;;;;;-144.73;100.00;54424.13;5021804;28;20444;-71
2023/09/10 08:29:39;;;;;;;179.57;72.50;;;;;;;-144.73;100.00;54391.28;5026104;28;20055;-71
2023/09/10 08:32:06;;;;;;;158.20;67.25;;;;;;;-144.73;100.00;54420.00;5033438;28;20041;-72
2023/09/10 08:34:32;;;;;;;186.43;76.32;;;;;;;-144.73;100.00;54436.44;5030237;28;20025;-71
2023/09/10 08:36:57;;;;;;;139.52;64.00;;;;;;;-144.73;100.00;54420.00;5030920;28;20050;-72
2023/09/10 08:39:23;;;;;;;143.80;64.70;;;;;;;-144.73;100.00;54383.06;5028962;28;20097;-72
2023/09/10 08:42:08;;;;;;;139.93;62.13;;;;;;;-144.73;100.00;54374.84;5025443;28;20042;-73
2023/09/10 08:44:35;;;;;;;137.10;63.20;;;;;;;-144.73;100.00;54420.00;5030128;28;20017;-73
2023/09/10 08:47:02;;;;;;;144.35;67.05;;;;;;;-144.73;100.00;54387.19;5021136;28;20113;-72
2023/09/10 08:49:31;;;;;;;124.28;61.22;;;;;;;-144.73;100.00;54395.38;5033409;28;20040;-73
2023/09/10 08:51:58;;;;;;;119.60;56.15;;;;;;;-144.73;100.00;54374.84;5027530;28;20041;-73
2023/09/10 08:54:24;;;;;;;114.20;57.03;;;;;;;-144.73;100.00;54366.66;5033946;28;20017;-73
2023/09/10 08:56:51;;;;;;;125.20;59.63;;;;;;;-144.73;100.00;54366.66;5022265;28;20049;-72
2023/09/10 08:59:17;;;;;;;106.18;54.42;;;;;;;-144.73;100.00;54432.31;5023873;28;20029;-73
2023/09/10 09:01:44;;;;;;;110.18;53.08;;;;;;;-144.73;100.00;54346.13;5030016;28;20045;-72
2023/09/10 09:04:12;;;;;;;116.57;56.95;;;;;;;-144.73;100.00;54378.97;5028468;28;20022;-72
2023/09/10 09:06:40;;;;;;;112.82;57.85;;;;;;;-144.73;100.00;54387.19;5024439;28;20066;-71
2023/09/10 09:09:07;;;;;;;116.45;54.58;;;;;;;-144.73;100.00;54354.34;5021659;28;20029;-72
2023/09/10 09:11:35;;;;;;;123.60;58.85;;;;;;;-144.73;100.00;54395.38;5027142;28;20582;-72
2023/09/10 09:14:03;;;;;;;122.40;58.70;;;;;;;-144.73;100.00;54383.06;5030961;28;20108;-71
2023/09/10 09:16:30;;;;;;;118.80;60.33;;;;;;;-144.73;100.00;54415.91;5026094;28;20452;-71
2023/09/10 09:18:57;;;;;;;109.95;54.75;;;;;;;-144.73;100.00;54374.84;5027935;28;20029;-72
2023/09/10 09:21:24;;;;;;;118.22;56.05;;;;;;;-144.73;100.00;54391.28;5024549;28;20034;-71
2023/09/10 09:24:01;;;;;;;107.65;54.17;;;;;;;-144.73;100.00;54366.66;5030526;28;20116;-71
2023/09/10 09:26:28;;;;;;;102.10;50.67;;;;;;;-144.73;100.00;54395.38;5025452;28;20040;-72
2023/09/10 09:28:57;;;;;;;92.95;47.70;;;;;;;-144.73;100.00;54383.06;5032138;28;20365;-72
2023/09/10 09:31:24;;;;;;;87.05;44.67;;;;;;;-144.73;100.00;54370.75;5027044;28;20116;-71
2023/09/10 09:33:51;;;;;;;85.57;44.72;;;;;;;-144.73;100.00;54411.81;5030912;28;20029;-72
2023/09/10 09:36:16;;;;;;;91.00;46.97;;;;;;;-144.73;100.00;54370.75;5024909;28;20124;-72
2023/09/10 09:38:47;;;;;;;78.90;45.60;;;;;;;-144.73;100.00;54364.59;5028124;28;20053;-72
2023/09/10 09:41:16;;;;;;;92.95;47.80;;;;;;;-144.73;100.00;54383.06;5024957;28;20044;-72
2023/09/10 09:43:43;;;;;;;80.40;40.65;;;;;;;-144.73;100.00;54376.91;5030760;28;20033;-72
2023/09/10 09:46:09;;;;;;;73.45;40.85;;;;;;;-144.73;100.00;54366.66;5022344;28;20041;-72
2023/09/10 09:48:34;;;;;;;77.35;40.83;;;;;;;-144.73;100.00;54325.59;5029873;28;20386;-72
2023/09/10 09:51:02;;;;;;;78.07;43.47;;;;;;;-144.73;100.00;54370.75;5027077;28;20120;-72
2023/09/10 09:53:30;;;;;;;76.35;42.28;;;;;;;-144.73;100.00;54391.28;5025479;28;20021;-72
2023/09/10 09:55:59;;;;;;;74.97;41.95;;;;;;;-144.73;100.00;54346.13;5019804;28;20042;-72
2023/09/10 09:58:25;;;;;;;68.40;40.10;;;;;;;-144.73;100.00;54329.72;5025685;28;20493;-72
2023/09/10 10:00:50;;;;;;;70.32;41.03;;;;;;;-144.73;100.00;54321.50;5022500;28;20083;-73
2023/09/10 10:03:20;;;;;;;63.78;39.30;;;;;;;-144.73;100.00;54346.13;5020790;28;20017;-73
2023/09/10 10:05:53;;;;;;;72.82;41.13;;;;;;;-144.73;100.00;54374.84;5028623;28;20087;-72
2023/09/10 10:08:24;;;;;;;66.85;38.78;;;;;;;-144.73;100.00;54303.03;5026969;28;20022;-73
2023/09/10 10:10:50;;;;;;;72.75;42.45;;;;;;;-144.73;100.00;54333.81;5029560;28;20029;-73
2023/09/10 10:13:18;;;;;;;66.90;39.03;;;;;;;-144.73;100.00;54329.72;5031111;28;20159;-73
2023/09/10 10:15:48;;;;;;;85.28;48.88;;;;;;;-144.73;100.00;54358.44;5029086;28;20508;-71
2023/09/10 10:18:19;;;;;;;64.80;38.00;;;;;;;-144.73;100.00;54350.22;5021253;28;20025;-71
2023/09/10 10:20:49;;;;;;;56.90;34.08;;;;;;;-144.73;100.00;54362.53;5027982;28;20041;-71
2023/09/10 10:23:20;;;;;;;63.53;37.47;;;;;;;-144.73;100.00;54321.50;5026629;28;20044;-71
2023/09/10 10:25:47;;;;;;;63.53;38.58;;;;;;;-144.73;100.00;54288.66;5023846;28;20041;-71
2023/09/10 10:28:13;;;;;;;61.40;38.63;;;;;;;-144.73;100.00;54329.72;5026341;28;20025;-71
2023/09/10 10:30:47;;;;;;;62.58;39.60;;;;;;;-144.73;100.00;54383.06;5028494;28;20034;-71
2023/09/10 10:33:16;;;;;;;71.20;44.20;;;;;;;-144.73;100.00;54288.66;5026060;28;20018;-71
2023/09/10 10:36:06;;;;;;;65.07;39.33;;;;;;;-144.73;100.00;54354.34;5026599;28;20136;-71
2023/09/10 10:38:34;;;;;;;60.20;37.33;;;;;;;-144.73;100.00;54358.44;5026369;28;20026;-71
2023/09/10 10:41:04;;;;;;;62.80;36.72;;;;;;;-144.73;100.00;54337.91;5028348;28;20034;-71
2023/09/10 10:43:34;;;;;;;61.25;37.17;;;;;;;-144.73;100.00;54370.75;5026436;28;20036;-71
2023/09/10 10:46:01;;;;;;;60.03;35.27;;;;;;;-144.73;100.00;54354.34;5028977;28;20041;-71
2023/09/10 10:48:31;;;;;;;60.22;36.95;;;;;;;-144.73;100.00;54309.19;5028951;28;20033;-71